Time,TemperatureF,DewpointF,PressureIn,WindDirection,WindDirectionDegrees,WindSpeedMPH,WindSpeedGustMPH,Humidity,HourlyPrecipIn,Conditions,Clouds,dailyrainin,SoftwareType,DateUTC
2013-01-30 00:00:00,33.3,32.0,29.55,North,351,5.0,5.0,95,0.00,,,0.07,Wunderground v.1.15,2013-01-30 06:00:00,
2013-01-30 00:05:00,33.3,32.0,29.55,NNW,333,4.0,5.0,95,0.00,,,0.00,Wunderground v.1.15,2013-01-30 06:05:00,
2013-01-30 00:15:00,33.2,31.9,29.54,NNW,330,5.0,5.0,95,0.00,,,0.00,Wunderground v.1.15,2013-01-30 06:15:00,
2013-01-30 00:20:00,33.2,31.9,29.54,NNW,343,4.0,4.0,95,0.00,,,0.00,Wunderground v.1.15,2013-01-30 06:20:00,
2013-01-30 00:25:00,33.2,31.9,29.54,NW,319,4.0,4.0,95,0.00,,,0.00,Wunderground v.1.15,2013-01-30 06:25:00,
2013-01-30 00:30:00,33.1,31.8,29.55,NW,323,3.0,7.0,95,0.00,,,0.00,Wunderground v.1.15,2013-01-30 06:30:00,
2013-01-30 00:35:00,33.0,31.7,29.55,NNE,17,3.0,7.0,95,0.00,,,0.00,Wunderground v.1.15,2013-01-30 06:35:00,
2013-01-30 00:45:00,32.9,31.6,29.54,ENE,75,3.0,7.0,95,0.00,,,0.00,Wunderground v.1.15,2013-01-30 06:45:00,
2013-01-30 00:50:00,32.7,31.4,29.54,NNW,344,3.0,3.0,95,0.00,,,0.00,Wunderground v.1.15,2013-01-30 06:50:00,
2013-01-30 00:55:00,32.6,31.3,29.54,North,350,3.0,3.0,95,0.00,,,0.00,Wunderground v.1.15,2013-01-30 06:55:00,
2013-01-30 01:05:00,32.4,31.4,29.53,North,355,3.0,4.0,96,0.00,,,0.00,Wunderground v.1.15,2013-01-30 07:05:00,
2013-01-30 01:10:00,32.3,31.3,29.53,NNE,17,3.0,3.0,96,0.00,,,0.00,Wunderground v.1.15,2013-01-30 07:10:00,
2013-01-30 01:15:00,32.2,31.2,29.52,NE,49,3.0,3.0,96,0.00,,,0.00,Wunderground v.1.15,2013-01-30 07:15:00,
2013-01-30 01:20:00,32.1,31.1,29.51,North,9,3.0,3.0,96,0.00,,,0.00,Wunderground v.1.15,2013-01-30 07:20:00,
2013-01-30 01:25:00,32.0,31.0,29.51,ENE,64,3.0,3.0,96,0.00,,,0.00,Wunderground v.1.15,2013-01-30 07:25:00,
2013-01-30 01:30:00,31.9,30.9,29.50,NNE,29,2.0,2.0,96,0.00,,,0.00,Wunderground v.1.15,2013-01-30 07:30:00,
2013-01-30 01:35:00,31.8,30.8,29.50,NE,53,2.0,3.0,96,0.00,,,0.00,Wunderground v.1.15,2013-01-30 07:35:00,
2013-01-30 01:45:00,31.7,30.9,29.50,NNE,28,3.0,4.0,97,0.00,,,0.00,Wunderground v.1.15,2013-01-30 07:45:00,
2013-01-30 01:50:00,31.6,30.8,29.50,NNE,32,3.0,3.0,97,0.00,,,0.00,Wunderground v.1.15,2013-01-30 07:50:00,
2013-01-30 01:55:00,31.5,30.7,29.49,ENE,61,3.0,4.0,97,0.00,,,0.00,Wunderground v.1.15,2013-01-30 07:55:00,
2013-01-30 02:00:00,31.5,30.7,29.49,ENE,65,2.0,11.0,97,0.00,,,0.00,Wunderground v.1.15,2013-01-30 08:00:00,
2013-01-30 02:05:00,31.4,30.6,29.49,North,9,3.0,11.0,97,0.00,,,0.00,Wunderground v.1.15,2013-01-30 08:05:00,
2013-01-30 02:10:00,31.4,30.6,29.50,NNW,346,2.0,2.0,97,0.00,,,0.00,Wunderground v.1.15,2013-01-30 08:10:00,
2013-01-30 02:15:00,31.3,30.5,29.50,NNW,348,1.0,3.0,97,0.00,,,0.00,Wunderground v.1.15,2013-01-30 08:15:00,
2013-01-30 02:25:00,31.2,30.4,29.50,NW,323,1.0,2.0,97,0.00,,,0.00,Wunderground v.1.15,2013-01-30 08:25:00,
2013-01-30 02:35:00,31.0,30.2,29.50,North,350,4.0,6.0,97,0.00,,,0.00,Wunderground v.1.15,2013-01-30 08:35:00,
2013-01-30 02:40:00,30.9,30.1,29.50,NNW,342,4.0,7.0,97,0.00,,,0.00,Wunderground v.1.15,2013-01-30 08:40:00,
2013-01-30 02:45:00,30.7,30.0,29.51,NNW,345,5.0,7.0,97,0.00,,,0.00,Wunderground v.1.15,2013-01-30 08:45:00,
2013-01-30 02:50:00,30.7,30.0,29.51,North,355,6.0,6.0,97,0.00,,,0.00,Wunderground v.1.15,2013-01-30 08:50:00,
2013-01-30 02:55:00,30.6,29.9,29.51,North,350,5.0,6.0,97,0.00,,,0.00,Wunderground v.1.15,2013-01-30 08:55:00,
2013-01-30 03:00:00,30.5,29.8,29.50,North,9,5.0,10.0,97,0.00,,,0.00,Wunderground v.1.15,2013-01-30 09:00:00,
2013-01-30 03:05:00,30.5,29.8,29.49,NNW,346,5.0,10.0,97,0.00,,,0.00,Wunderground v.1.15,2013-01-30 09:05:00,
2013-01-30 03:15:00,30.1,29.4,29.49,NNW,348,7.0,8.0,97,0.00,,,0.00,Wunderground v.1.15,2013-01-30 09:15:00,
2013-01-30 03:20:00,30.1,29.4,29.48,NNW,328,7.0,8.0,97,0.00,,,0.00,Wunderground v.1.15,2013-01-30 09:20:00,
2013-01-30 03:25:00,30.0,29.3,29.49,NNW,336,7.0,8.0,97,0.00,,,0.00,Wunderground v.1.15,2013-01-30 09:25:00,
2013-01-30 03:30:00,29.9,29.2,29.48,NNW,345,7.0,7.0,97,0.00,,,0.00,Wunderground v.1.15,2013-01-30 09:30:00,
2013-01-30 03:35:00,29.6,28.9,29.47,NNW,342,6.0,7.0,97,0.00,,,0.00,Wunderground v.1.15,2013-01-30 09:35:00,
2013-01-30 03:40:00,29.4,28.7,29.47,NNW,335,6.0,15.0,97,0.00,,,0.00,Wunderground v.1.15,2013-01-30 09:40:00,
2013-01-30 03:45:00,29.1,28.4,29.48,NNW,330,7.0,15.0,97,0.00,,,0.00,Wunderground v.1.15,2013-01-30 09:45:00,
2013-01-30 03:50:00,29.0,28.3,29.47,NNW,345,7.0,7.0,97,0.00,,,0.00,Wunderground v.1.15,2013-01-30 09:50:00,
2013-01-30 03:55:00,28.9,28.2,29.47,NW,324,7.0,7.0,97,0.00,,,0.00,Wunderground v.1.15,2013-01-30 09:55:00,
2013-01-30 04:00:00,28.8,28.1,29.48,NNW,327,6.0,8.0,97,0.00,,,0.00,Wunderground v.1.15,2013-01-30 10:00:00,
2013-01-30 04:10:00,28.7,28.0,29.47,NE,49,7.0,8.0,97,0.00,,,0.00,Wunderground v.1.15,2013-01-30 10:10:00,
2013-01-30 04:15:00,28.6,27.9,29.48,NW,308,7.0,8.0,97,0.00,,,0.00,Wunderground v.1.15,2013-01-30 10:15:00,
2013-01-30 04:20:00,28.6,27.9,29.49,NNW,337,8.0,8.0,97,0.00,,,0.00,Wunderground v.1.15,2013-01-30 10:20:00,
2013-01-30 04:30:00,28.6,27.9,29.47,NNW,336,6.0,6.0,97,0.00,,,0.00,Wunderground v.1.15,2013-01-30 10:30:00,
2013-01-30 04:35:00,28.6,27.9,29.47,NNW,329,7.0,7.0,97,0.00,,,0.00,Wunderground v.1.15,2013-01-30 10:35:00,
2013-01-30 04:40:00,28.6,27.9,29.49,NW,311,7.0,7.0,97,0.00,,,0.00,Wunderground v.1.15,2013-01-30 10:40:00,
2013-01-30 04:45:00,28.5,27.8,29.50,NW,310,8.0,8.0,97,0.00,,,0.00,Wunderground v.1.15,2013-01-30 10:45:00,
2013-01-30 04:50:00,28.5,27.8,29.49,NNW,330,7.0,9.0,97,0.00,,,0.00,Wunderground v.1.15,2013-01-30 10:50:00,
2013-01-30 04:55:00,28.4,27.7,29.49,NNW,337,7.0,9.0,97,0.00,,,0.00,Wunderground v.1.15,2013-01-30 10:55:00,
2013-01-30 05:05:00,28.3,27.6,29.49,NNE,33,7.0,8.0,97,0.00,,,0.00,Wunderground v.1.15,2013-01-30 11:05:00,
2013-01-30 05:10:00,28.3,27.6,29.49,NE,34,7.0,7.0,97,0.00,,,0.00,Wunderground v.1.15,2013-01-30 11:10:00,
2013-01-30 05:15:00,28.3,27.6,29.49,NNW,344,7.0,7.0,97,0.00,,,0.00,Wunderground v.1.15,2013-01-30 11:15:00,
2013-01-30 05:20:00,28.3,27.6,29.48,North,350,7.0,7.0,97,0.00,,,0.00,Wunderground v.1.15,2013-01-30 11:20:00,
2013-01-30 05:25:00,28.3,27.6,29.50,NNW,327,7.0,13.0,97,0.00,,,0.00,Wunderground v.1.15,2013-01-30 11:25:00,
2013-01-30 05:30:00,28.1,27.4,29.50,NW,322,8.0,11.0,97,0.00,,,0.00,Wunderground v.1.15,2013-01-30 11:30:00,
2013-01-30 05:35:00,27.8,27.1,29.51,NNW,327,10.0,11.0,97,0.00,,,0.00,Wunderground v.1.15,2013-01-30 11:35:00,
2013-01-30 05:45:00,27.4,26.7,29.53,North,360,10.0,15.0,97,0.00,,,0.00,Wunderground v.1.15,2013-01-30 11:45:00,
2013-01-30 05:50:00,27.3,26.6,29.53,NW,319,11.0,11.0,97,0.00,,,0.00,Wunderground v.1.15,2013-01-30 11:50:00,
2013-01-30 05:55:00,27.2,26.5,29.53,North,349,12.0,13.0,97,0.00,,,0.00,Wunderground v.1.15,2013-01-30 11:55:00,
2013-01-30 06:00:00,27.1,26.4,29.53,North,355,10.0,10.0,97,0.00,,,0.00,Wunderground v.1.15,2013-01-30 12:00:00,
2013-01-30 06:05:00,27.1,26.4,29.53,NW,326,9.0,10.0,97,0.00,,,0.00,Wunderground v.1.15,2013-01-30 12:05:00,
2013-01-30 06:10:00,27.2,26.5,29.53,NNW,327,7.0,7.0,97,0.00,,,0.00,Wunderground v.1.15,2013-01-30 12:10:00,
2013-01-30 06:15:00,27.3,26.6,29.53,NNW,336,7.0,9.0,97,0.00,,,0.00,Wunderground v.1.15,2013-01-30 12:15:00,
2013-01-30 06:20:00,27.3,26.6,29.53,NW,323,7.0,7.0,97,0.00,,,0.00,Wunderground v.1.15,2013-01-30 12:20:00,
2013-01-30 06:25:00,27.2,26.5,29.53,NNW,333,7.0,11.0,97,0.00,,,0.00,Wunderground v.1.15,2013-01-30 12:25:00,
2013-01-30 06:30:00,27.1,26.4,29.54,NNW,345,8.0,10.0,97,0.00,,,0.00,Wunderground v.1.15,2013-01-30 12:30:00,
2013-01-30 06:40:00,26.8,26.1,29.55,NNW,345,7.0,7.0,97,0.00,,,0.00,Wunderground v.1.15,2013-01-30 12:40:00,
2013-01-30 06:45:00,26.7,26.0,29.55,NNW,340,7.0,8.0,97,0.00,,,0.00,Wunderground v.1.15,2013-01-30 12:45:00,
2013-01-30 06:50:00,26.5,25.8,29.55,NNW,330,7.0,9.0,97,0.00,,,0.00,Wunderground v.1.15,2013-01-30 12:50:00,
2013-01-30 07:00:00,26.2,25.5,29.54,NNW,327,7.0,9.0,97,0.00,,,0.00,Wunderground v.1.15,2013-01-30 13:00:00,
2013-01-30 07:05:00,26.2,25.5,29.53,NNW,344,7.0,9.0,97,0.00,,,0.00,Wunderground v.1.15,2013-01-30 13:05:00,
2013-01-30 07:10:00,26.1,25.4,29.54,NNW,336,7.0,12.0,97,0.00,,,0.00,Wunderground v.1.15,2013-01-30 13:10:00,
2013-01-30 07:20:00,25.8,25.1,29.54,North,360,8.0,8.0,97,0.00,,,0.00,Wunderground v.1.15,2013-01-30 13:20:00,
2013-01-30 07:25:00,25.7,25.0,29.54,NNW,346,6.0,8.0,97,0.00,,,0.00,Wunderground v.1.15,2013-01-30 13:25:00,
2013-01-30 07:30:00,25.7,25.0,29.54,NNE,19,5.0,5.0,97,0.00,,,0.00,Wunderground v.1.15,2013-01-30 13:30:00,
2013-01-30 07:35:00,25.7,25.0,29.55,North,350,7.0,7.0,97,0.00,,,0.00,Wunderground v.1.15,2013-01-30 13:35:00,
2013-01-30 07:40:00,25.6,24.9,29.55,North,351,8.0,8.0,97,0.00,,,0.00,Wunderground v.1.15,2013-01-30 13:40:00,
2013-01-30 07:50:00,25.5,24.8,29.55,NNW,348,8.0,8.0,97,0.00,,,0.00,Wunderground v.1.15,2013-01-30 13:50:00,
2013-01-30 07:55:00,25.5,24.8,29.55,NNW,334,7.0,8.0,97,0.00,,,0.00,Wunderground v.1.15,2013-01-30 13:55:00,
2013-01-30 08:00:00,25.5,24.8,29.55,NNW,346,8.0,8.0,97,0.00,,,0.00,Wunderground v.1.15,2013-01-30 14:00:00,
2013-01-30 08:05:00,25.3,24.6,29.55,North,355,9.0,9.0,97,0.00,,,0.00,Wunderground v.1.15,2013-01-30 14:05:00,
2013-01-30 08:10:00,25.2,24.2,29.55,NNW,336,9.0,12.0,96,0.00,,,0.00,Wunderground v.1.15,2013-01-30 14:10:00,
2013-01-30 08:15:00,25.1,24.1,29.55,NNW,342,10.0,12.0,96,0.00,,,0.00,Wunderground v.1.15,2013-01-30 14:15:00,
2013-01-30 08:20:00,25.1,24.1,29.55,NNW,328,10.0,10.0,96,0.00,,,0.00,Wunderground v.1.15,2013-01-30 14:20:00,
2013-01-30 08:30:00,25.1,24.1,29.56,NW,318,9.0,9.0,96,0.00,,,0.00,Wunderground v.1.15,2013-01-30 14:30:00,
2013-01-30 08:35:00,25.0,24.0,29.56,NNW,342,9.0,10.0,96,0.00,,,0.00,Wunderground v.1.15,2013-01-30 14:35:00,
2013-01-30 08:45:00,24.7,23.7,29.56,NNW,344,9.0,14.0,96,0.00,,,0.00,Wunderground v.1.15,2013-01-30 14:45:00,
2013-01-30 08:50:00,24.6,23.6,29.56,North,360,10.0,13.0,96,0.00,,,0.00,Wunderground v.1.15,2013-01-30 14:50:00,
2013-01-30 08:55:00,24.4,23.4,29.56,NNW,346,10.0,13.0,96,0.00,,,0.00,Wunderground v.1.15,2013-01-30 14:55:00,
2013-01-30 09:00:00,24.4,23.4,29.56,NNW,333,9.0,9.0,96,0.00,,,0.00,Wunderground v.1.15,2013-01-30 15:00:00,
2013-01-30 09:05:00,24.4,23.4,29.56,NW,309,9.0,9.0,96,0.00,,,0.00,Wunderground v.1.15,2013-01-30 15:05:00,
2013-01-30 09:10:00,24.4,23.4,29.56,NNW,346,10.0,10.0,96,0.00,,,0.00,Wunderground v.1.15,2013-01-30 15:10:00,
2013-01-30 09:15:00,24.4,23.4,29.56,North,9,10.0,15.0,96,0.00,,,0.00,Wunderground v.1.15,2013-01-30 15:15:00,
2013-01-30 09:25:00,24.4,23.4,29.56,North,355,8.0,9.0,96,0.00,,,0.00,Wunderground v.1.15,2013-01-30 15:25:00,
2013-01-30 09:30:00,24.4,23.4,29.57,NNW,329,9.0,9.0,96,0.00,,,0.00,Wunderground v.1.15,2013-01-30 15:30:00,
2013-01-30 09:35:00,24.2,23.2,29.57,NNW,329,10.0,11.0,96,0.00,,,0.00,Wunderground v.1.15,2013-01-30 15:35:00,
2013-01-30 09:40:00,24.1,23.1,29.57,NW,311,11.0,11.0,96,0.00,,,0.00,Wunderground v.1.15,2013-01-30 15:40:00,
2013-01-30 09:50:00,23.8,22.8,29.58,NNW,338,8.0,13.0,96,0.00,,,0.00,Wunderground v.1.15,2013-01-30 15:50:00,
2013-01-30 09:55:00,23.5,22.3,29.58,NNW,329,8.0,13.0,95,0.00,,,0.00,Wunderground v.1.15,2013-01-30 15:55:00,
2013-01-30 10:00:00,23.1,21.9,29.58,NNW,334,9.0,11.0,95,0.00,,,0.00,Wunderground v.1.15,2013-01-30 16:00:00,
2013-01-30 10:05:00,22.9,21.7,29.59,NW,324,10.0,11.0,95,0.00,,,0.00,Wunderground v.1.15,2013-01-30 16:05:00,
2013-01-30 10:10:00,22.7,21.5,29.59,WNW,302,10.0,10.0,95,0.00,,,0.00,Wunderground v.1.15,2013-01-30 16:10:00,
2013-01-30 10:15:00,22.6,21.4,29.59,NW,323,9.0,10.0,95,0.00,,,0.00,Wunderground v.1.15,2013-01-30 16:15:00,
2013-01-30 10:20:00,22.5,21.3,29.60,NW,311,8.0,11.0,95,0.00,,,0.00,Wunderground v.1.15,2013-01-30 16:20:00,
2013-01-30 10:30:00,22.3,21.1,29.61,NW,325,10.0,10.0,95,0.00,,,0.00,Wunderground v.1.15,2013-01-30 16:30:00,
2013-01-30 10:35:00,22.2,21.0,29.61,NNW,340,10.0,10.0,95,0.00,,,0.00,Wunderground v.1.15,2013-01-30 16:35:00,
2013-01-30 10:40:00,22.0,20.8,29.61,WNW,300,9.0,10.0,95,0.00,,,0.00,Wunderground v.1.15,2013-01-30 16:40:00,
2013-01-30 10:45:00,21.9,20.7,29.61,NNW,338,9.0,10.0,95,0.00,,,0.00,Wunderground v.1.15,2013-01-30 16:45:00,
2013-01-30 10:50:00,21.9,20.7,29.62,WNW,300,9.0,15.0,95,0.00,,,0.00,Wunderground v.1.15,2013-01-30 16:50:00,
2013-01-30 10:55:00,21.7,20.5,29.63,North,10,10.0,15.0,95,0.00,,,0.00,Wunderground v.1.15,2013-01-30 16:55:00,
2013-01-30 11:00:00,21.6,20.4,29.63,NNW,334,10.0,11.0,95,0.00,,,0.00,Wunderground v.1.15,2013-01-30 17:00:00,
2013-01-30 11:05:00,21.5,20.3,29.63,NNW,337,10.0,12.0,95,0.00,,,0.00,Wunderground v.1.15,2013-01-30 17:05:00,
2013-01-30 11:15:00,21.3,19.8,29.63,NNW,331,10.0,10.0,94,0.00,,,0.00,Wunderground v.1.15,2013-01-30 17:15:00,
2013-01-30 11:20:00,21.3,19.8,29.64,NNW,330,10.0,10.0,94,0.00,,,0.00,Wunderground v.1.15,2013-01-30 17:20:00,
2013-01-30 11:30:00,21.0,19.5,29.65,WNW,291,9.0,13.0,94,0.00,,,0.00,Wunderground v.1.15,2013-01-30 17:30:00,
2013-01-30 11:35:00,20.8,19.3,29.64,NW,304,10.0,13.0,94,0.00,,,0.00,Wunderground v.1.15,2013-01-30 17:35:00,
2013-01-30 11:40:00,20.5,19.0,29.65,WNW,297,11.0,20.0,94,0.00,,,0.00,Wunderground v.1.15,2013-01-30 17:40:00,
2013-01-30 11:45:00,20.4,18.9,29.65,WNW,294,10.0,20.0,94,0.00,,,0.00,Wunderground v.1.15,2013-01-30 17:45:00,
2013-01-30 11:50:00,20.4,18.9,29.65,NNW,337,8.0,8.0,94,0.00,,,0.00,Wunderground v.1.15,2013-01-30 17:50:00,
2013-01-30 12:00:00,20.4,18.9,29.65,NW,309,9.0,9.0,94,0.00,,,0.00,Wunderground v.1.15,2013-01-30 18:00:00,
2013-01-30 12:05:00,20.3,18.8,29.65,NNW,348,9.0,10.0,94,0.00,,,0.00,Wunderground v.1.15,2013-01-30 18:05:00,
2013-01-30 12:10:00,20.3,18.8,29.65,NW,321,10.0,11.0,94,0.00,,,0.00,Wunderground v.1.15,2013-01-30 18:10:00,
2013-01-30 12:15:00,20.3,18.8,29.65,NNW,347,10.0,14.0,94,0.00,,,0.00,Wunderground v.1.15,2013-01-30 18:15:00,
2013-01-30 12:20:00,20.3,18.8,29.65,WNW,288,10.0,15.0,94,0.00,,,0.00,Wunderground v.1.15,2013-01-30 18:20:00,
2013-01-30 12:25:00,20.4,18.9,29.65,NW,318,11.0,18.0,94,0.00,,,0.00,Wunderground v.1.15,2013-01-30 18:25:00,
2013-01-30 12:30:00,20.4,18.7,29.65,NW,304,11.0,13.0,93,0.00,,,0.00,Wunderground v.1.15,2013-01-30 18:30:00,
2013-01-30 12:40:00,20.6,18.9,29.66,WNW,294,11.0,11.0,93,0.00,,,0.00,Wunderground v.1.15,2013-01-30 18:40:00,
2013-01-30 12:45:00,20.7,19.0,29.65,NNW,331,9.0,11.0,93,0.00,,,0.00,Wunderground v.1.15,2013-01-30 18:45:00,
2013-01-30 12:50:00,20.8,19.1,29.65,NNW,327,10.0,11.0,93,0.00,,,0.00,Wunderground v.1.15,2013-01-30 18:50:00,
2013-01-30 12:55:00,20.7,19.0,29.65,WNW,301,12.0,12.0,93,0.00,,,0.00,Wunderground v.1.15,2013-01-30 18:55:00,
2013-01-30 13:00:00,20.8,19.1,29.65,NW,326,11.0,11.0,93,0.00,,,0.00,Wunderground v.1.15,2013-01-30 19:00:00,
2013-01-30 13:10:00,20.8,19.1,29.65,WNW,287,9.0,14.0,93,0.00,,,0.00,Wunderground v.1.15,2013-01-30 19:10:00,
2013-01-30 13:20:00,20.8,19.1,29.66,NNW,338,11.0,14.0,93,0.00,,,0.00,Wunderground v.1.15,2013-01-30 19:20:00,
2013-01-30 13:25:00,20.8,19.1,29.66,NNW,339,11.0,14.0,93,0.00,,,0.00,Wunderground v.1.15,2013-01-30 19:25:00,
2013-01-30 13:30:00,20.9,19.2,29.65,NNW,331,10.0,10.0,93,0.00,,,0.00,Wunderground v.1.15,2013-01-30 19:30:00,
2013-01-30 13:35:00,21.1,19.4,29.65,NNW,342,8.0,10.0,93,0.00,,,0.00,Wunderground v.1.15,2013-01-30 19:35:00,
2013-01-30 13:45:00,21.3,19.6,29.65,NW,325,8.0,14.0,93,0.00,,,0.00,Wunderground v.1.15,2013-01-30 19:45:00,
2013-01-30 13:50:00,21.2,19.5,29.66,West,275,9.0,13.0,93,0.00,,,0.00,Wunderground v.1.15,2013-01-30 19:50:00,
2013-01-30 13:55:00,21.2,19.5,29.66,North,350,10.0,13.0,93,0.00,,,0.00,Wunderground v.1.15,2013-01-30 19:55:00,
2013-01-30 14:00:00,21.3,19.6,29.66,NW,326,9.0,9.0,93,0.00,,,0.00,Wunderground v.1.15,2013-01-30 20:00:00,
2013-01-30 14:05:00,21.5,19.8,29.66,WNW,294,8.0,9.0,93,0.00,,,0.00,Wunderground v.1.15,2013-01-30 20:05:00,
2013-01-30 14:10:00,21.6,19.9,29.66,NW,312,8.0,13.0,93,0.00,,,0.00,Wunderground v.1.15,2013-01-30 20:10:00,
2013-01-30 14:20:00,21.5,19.8,29.67,West,273,9.0,9.0,93,0.00,,,0.00,Wunderground v.1.15,2013-01-30 20:20:00,
2013-01-30 14:25:00,21.2,19.2,29.67,NNW,342,10.0,10.0,92,0.00,,,0.00,Wunderground v.1.15,2013-01-30 20:25:00,
2013-01-30 14:35:00,21.0,19.3,29.67,WNW,294,11.0,11.0,93,0.00,,,0.00,Wunderground v.1.15,2013-01-30 20:35:00,
2013-01-30 14:45:00,20.9,19.2,29.68,NW,312,10.0,11.0,93,0.00,,,0.00,Wunderground v.1.15,2013-01-30 20:45:00,
2013-01-30 14:50:00,21.2,19.5,29.68,WNW,300,10.0,10.0,93,0.00,,,0.00,Wunderground v.1.15,2013-01-30 20:50:00,
2013-01-30 14:55:00,21.4,19.7,29.68,NW,322,10.0,12.0,93,0.00,,,0.00,Wunderground v.1.15,2013-01-30 20:55:00,
2013-01-30 15:00:00,21.6,19.9,29.68,NNW,328,10.0,10.0,93,0.00,,,0.00,Wunderground v.1.15,2013-01-30 21:00:00,
2013-01-30 15:05:00,21.7,20.0,29.69,NW,310,9.0,18.0,93,0.00,,,0.00,Wunderground v.1.15,2013-01-30 21:05:00,
2013-01-30 15:15:00,21.4,19.4,29.68,WNW,289,12.0,14.0,92,0.00,,,0.00,Wunderground v.1.15,2013-01-30 21:15:00,
2013-01-30 15:20:00,21.3,19.3,29.69,West,276,11.0,11.0,92,0.00,,,0.00,Wunderground v.1.15,2013-01-30 21:20:00,
2013-01-30 15:25:00,21.2,19.2,29.69,WNW,291,11.0,11.0,92,0.00,,,0.00,Wunderground v.1.15,2013-01-30 21:25:00,
2013-01-30 15:30:00,21.1,19.1,29.69,NW,314,11.0,11.0,92,0.00,,,0.00,Wunderground v.1.15,2013-01-30 21:30:00,
2013-01-30 15:35:00,21.0,19.0,29.69,NW,304,11.0,13.0,92,0.00,,,0.00,Wunderground v.1.15,2013-01-30 21:35:00,
2013-01-30 15:45:00,20.9,19.2,29.70,North,355,10.0,11.0,93,0.00,,,0.00,Wunderground v.1.15,2013-01-30 21:45:00,
2013-01-30 15:50:00,20.6,18.6,29.70,NW,324,10.0,12.0,92,0.00,,,0.00,Wunderground v.1.15,2013-01-30 21:50:00,
2013-01-30 15:55:00,20.5,18.5,29.70,WNW,294,11.0,12.0,92,0.00,,,0.00,Wunderground v.1.15,2013-01-30 21:55:00,
2013-01-30 16:00:00,20.5,18.5,29.71,NNW,337,10.0,12.0,92,0.00,,,0.00,Wunderground v.1.15,2013-01-30 22:00:00,
2013-01-30 16:05:00,20.5,18.5,29.71,NW,307,11.0,12.0,92,0.00,,,0.00,Wunderground v.1.15,2013-01-30 22:05:00,
2013-01-30 16:10:00,20.4,18.4,29.71,NNW,345,10.0,10.0,92,0.00,,,0.00,Wunderground v.1.15,2013-01-30 22:10:00,
2013-01-30 16:20:00,20.3,18.3,29.72,WNW,300,10.0,10.0,92,0.00,,,0.00,Wunderground v.1.15,2013-01-30 22:20:00,
2013-01-30 16:25:00,20.1,18.1,29.72,NNW,333,10.0,10.0,92,0.00,,,0.00,Wunderground v.1.15,2013-01-30 22:25:00,
2013-01-30 16:30:00,20.0,18.1,29.73,WNW,292,10.0,10.0,92,0.00,,,0.00,Wunderground v.1.15,2013-01-30 22:30:00,
2013-01-30 16:35:00,19.9,18.0,29.73,NW,311,10.0,10.0,92,0.00,,,0.00,Wunderground v.1.15,2013-01-30 22:35:00,
2013-01-30 16:40:00,19.9,18.0,29.73,NW,323,9.0,9.0,92,0.00,,,0.00,Wunderground v.1.15,2013-01-30 22:40:00,
2013-01-30 16:45:00,19.8,18.1,29.73,WNW,290,9.0,9.0,93,0.00,,,0.00,Wunderground v.1.15,2013-01-30 22:45:00,
2013-01-30 16:55:00,19.8,17.9,29.73,NW,317,8.0,9.0,92,0.00,,,0.00,Wunderground v.1.15,2013-01-30 22:55:00,
2013-01-30 17:00:00,19.7,17.8,29.73,NNW,329,7.0,8.0,92,0.00,,,0.00,Wunderground v.1.15,2013-01-30 23:00:00,
2013-01-30 17:05:00,19.5,17.6,29.74,NW,310,8.0,9.0,92,0.00,,,0.00,Wunderground v.1.15,2013-01-30 23:05:00,
2013-01-30 17:10:00,19.3,17.4,29.74,WNW,294,10.0,21.0,92,0.00,,,0.00,Wunderground v.1.15,2013-01-30 23:10:00,
2013-01-30 17:15:00,19.2,17.3,29.74,North,360,10.0,21.0,92,0.00,,,0.00,Wunderground v.1.15,2013-01-30 23:15:00,
2013-01-30 17:20:00,19.0,17.1,29.75,WNW,303,10.0,10.0,92,0.00,,,0.00,Wunderground v.1.15,2013-01-30 23:20:00,
2013-01-30 17:25:00,18.9,17.0,29.75,WNW,296,9.0,10.0,92,0.00,,,0.00,Wunderground v.1.15,2013-01-30 23:25:00,
2013-01-30 17:30:00,18.7,16.8,29.75,NW,310,10.0,10.0,92,0.00,,,0.00,Wunderground v.1.15,2013-01-30 23:30:00,
2013-01-30 17:40:00,18.6,16.7,29.75,NW,309,8.0,11.0,92,0.00,,,0.00,Wunderground v.1.15,2013-01-30 23:40:00,
2013-01-30 17:45:00,18.5,16.6,29.76,NW,304,8.0,11.0,92,0.00,,,0.00,Wunderground v.1.15,2013-01-30 23:45:00,
2013-01-30 17:50:00,18.5,16.6,29.76,NNW,343,8.0,8.0,92,0.00,,,0.00,Wunderground v.1.15,2013-01-30 23:50:00,
2013-01-30 17:55:00,18.4,16.5,29.77,NW,319,8.0,8.0,92,0.00,,,0.00,Wunderground v.1.15,2013-01-30 23:55:00,
2013-01-30 18:00:00,18.5,16.6,29.77,NNE,17,8.0,8.0,92,0.00,,,0.00,Wunderground v.1.15,2013-01-31 00:00:00,
2013-01-30 18:05:00,18.5,16.6,29.78,NW,306,9.0,9.0,92,0.00,,,0.00,Wunderground v.1.15,2013-01-31 00:05:00,
2013-01-30 18:15:00,18.3,16.1,29.78,NNW,327,9.0,9.0,91,0.00,,,0.00,Wunderground v.1.15,2013-01-31 00:15:00,
2013-01-30 18:20:00,18.2,16.0,29.79,NW,321,9.0,9.0,91,0.00,,,0.00,Wunderground v.1.15,2013-01-31 00:20:00,
2013-01-30 18:25:00,18.2,16.0,29.79,North,5,7.0,14.0,91,0.00,,,0.00,Wunderground v.1.15,2013-01-31 00:25:00,
2013-01-30 18:30:00,18.2,16.0,29.79,North,360,8.0,8.0,91,0.00,,,0.00,Wunderground v.1.15,2013-01-31 00:30:00,
2013-01-30 18:40:00,18.1,15.9,29.80,NW,315,8.0,8.0,91,0.00,,,0.00,Wunderground v.1.15,2013-01-31 00:40:00,
2013-01-30 18:50:00,17.9,16.0,29.80,NW,306,7.0,9.0,92,0.00,,,0.00,Wunderground v.1.15,2013-01-31 00:50:00,
2013-01-30 18:55:00,17.8,15.9,29.81,NW,310,6.0,9.0,92,0.00,,,0.00,Wunderground v.1.15,2013-01-31 00:55:00,
2013-01-30 19:00:00,17.6,15.4,29.81,NW,316,6.0,7.0,91,0.00,,,0.00,Wunderground v.1.15,2013-01-31 01:00:00,
2013-01-30 19:10:00,17.5,15.3,29.81,NW,315,8.0,8.0,91,0.00,,,0.00,Wunderground v.1.15,2013-01-31 01:10:00,
2013-01-30 19:15:00,17.4,15.2,29.81,WNW,287,7.0,8.0,91,0.00,,,0.00,Wunderground v.1.15,2013-01-31 01:15:00,
2013-01-30 19:20:00,17.4,15.2,29.81,NW,306,7.0,7.0,91,0.00,,,0.00,Wunderground v.1.15,2013-01-31 01:20:00,
2013-01-30 19:25:00,17.4,15.2,29.81,NW,311,7.0,7.0,91,0.00,,,0.00,Wunderground v.1.15,2013-01-31 01:25:00,
2013-01-30 19:35:00,17.3,15.1,29.82,WNW,299,6.0,6.0,91,0.00,,,0.00,Wunderground v.1.15,2013-01-31 01:35:00,
2013-01-30 19:40:00,17.2,15.0,29.81,WNW,298,5.0,7.0,91,0.00,,,0.00,Wunderground v.1.15,2013-01-31 01:40:00,
2013-01-30 19:45:00,17.2,15.0,29.81,WNW,303,6.0,7.0,91,0.00,,,0.00,Wunderground v.1.15,2013-01-31 01:45:00,
2013-01-30 19:55:00,17.3,15.4,29.82,WNW,302,5.0,6.0,92,0.00,,,0.00,Wunderground v.1.15,2013-01-31 01:55:00,
2013-01-30 20:00:00,17.3,15.1,29.82,West,277,5.0,5.0,91,0.00,,,0.00,Wunderground v.1.15,2013-01-31 02:00:00,
2013-01-30 20:05:00,17.3,15.1,29.82,WNW,293,6.0,6.0,91,0.00,,,0.00,Wunderground v.1.15,2013-01-31 02:05:00,
2013-01-30 20:10:00,17.4,15.5,29.82,WNW,296,5.0,5.0,92,0.00,,,0.00,Wunderground v.1.15,2013-01-31 02:10:00,
2013-01-30 20:15:00,17.5,15.6,29.82,WNW,282,5.0,6.0,92,0.00,,,0.00,Wunderground v.1.15,2013-01-31 02:15:00,
2013-01-30 20:20:00,17.6,15.7,29.82,West,281,5.0,5.0,92,0.00,,,0.00,Wunderground v.1.15,2013-01-31 02:20:00,
2013-01-30 20:30:00,17.8,15.9,29.82,NW,305,2.0,2.0,92,0.00,,,0.00,Wunderground v.1.15,2013-01-31 02:30:00,
2013-01-30 20:35:00,17.8,15.9,29.82,NW,311,3.0,5.0,92,0.00,,,0.00,Wunderground v.1.15,2013-01-31 02:35:00,
2013-01-30 20:40:00,17.9,16.0,29.82,WNW,295,3.0,3.0,92,0.00,,,0.00,Wunderground v.1.15,2013-01-31 02:40:00,
2013-01-30 20:45:00,17.9,16.0,29.83,WNW,300,1.0,3.0,92,0.00,,,0.00,Wunderground v.1.15,2013-01-31 02:45:00,
2013-01-30 20:50:00,17.9,16.0,29.83,NW,306,0.0,0.0,92,0.00,,,0.00,Wunderground v.1.15,2013-01-31 02:50:00,
2013-01-30 21:00:00,17.9,16.0,29.83,WNW,300,0.0,0.0,92,0.00,,,0.00,Wunderground v.1.15,2013-01-31 03:00:00,
2013-01-30 21:05:00,18.0,16.1,29.83,WNW,301,0.0,0.0,92,0.00,,,0.00,Wunderground v.1.15,2013-01-31 03:05:00,
2013-01-30 21:10:00,18.0,16.1,29.83,NW,306,0.0,0.0,92,0.00,,,0.00,Wunderground v.1.15,2013-01-31 03:10:00,
2013-01-30 21:15:00,18.1,16.2,29.83,West,277,0.0,0.0,92,0.00,,,0.00,Wunderground v.1.15,2013-01-31 03:15:00,
2013-01-30 21:20:00,18.2,16.3,29.83,South,180,1.0,3.0,92,0.00,,,0.00,Wunderground v.1.15,2013-01-31 03:20:00,
2013-01-30 21:30:00,18.6,16.9,29.84,WNW,302,2.0,2.0,93,0.00,,,0.00,Wunderground v.1.15,2013-01-31 03:30:00,
2013-01-30 21:35:00,18.8,17.1,29.84,WNW,298,2.0,4.0,93,0.00,,,0.00,Wunderground v.1.15,2013-01-31 03:35:00,
2013-01-30 21:40:00,19.0,17.3,29.84,NW,325,3.0,5.0,93,0.00,,,0.00,Wunderground v.1.15,2013-01-31 03:40:00,
2013-01-30 21:50:00,19.2,17.5,29.84,NW,322,5.0,12.0,93,0.00,,,0.00,Wunderground v.1.15,2013-01-31 03:50:00,
2013-01-30 21:55:00,19.2,17.5,29.84,NNW,328,7.0,12.0,93,0.00,,,0.00,Wunderground v.1.15,2013-01-31 03:55:00,
2013-01-30 22:00:00,19.2,17.5,29.84,West,280,8.0,9.0,93,0.00,,,0.00,Wunderground v.1.15,2013-01-31 04:00:00,
2013-01-30 22:05:00,19.2,17.3,29.84,NW,319,8.0,9.0,92,0.00,,,0.00,Wunderground v.1.15,2013-01-31 04:05:00,
2013-01-30 22:10:00,19.2,17.3,29.84,NW,313,8.0,8.0,92,0.00,,,0.00,Wunderground v.1.15,2013-01-31 04:10:00,
2013-01-30 22:15:00,19.2,17.0,29.84,WNW,302,8.0,8.0,91,0.00,,,0.00,Wunderground v.1.15,2013-01-31 04:15:00,
2013-01-30 22:25:00,18.9,18.9,29.84,WNW,291,8.0,10.0,100,0.00,,,0.00,Wunderground v.1.15,2013-01-31 04:25:00,
2013-01-30 22:30:00,18.7,16.5,29.84,WNW,303,9.0,11.0,91,0.00,,,0.00,Wunderground v.1.15,2013-01-31 04:30:00,
2013-01-30 22:35:00,18.6,16.4,29.84,North,355,8.0,11.0,91,0.00,,,0.00,Wunderground v.1.15,2013-01-31 04:35:00,
2013-01-30 22:40:00,18.5,16.3,29.85,WNW,302,7.0,7.0,91,0.00,,,0.00,Wunderground v.1.15,2013-01-31 04:40:00,
2013-01-30 22:45:00,18.5,16.3,29.84,West,271,8.0,8.0,91,0.00,,,0.00,Wunderground v.1.15,2013-01-31 04:45:00,
2013-01-30 22:50:00,18.4,16.2,29.85,West,279,6.0,8.0,91,0.00,,,0.00,Wunderground v.1.15,2013-01-31 04:50:00,
2013-01-30 22:55:00,18.3,16.4,29.85,North,5,6.0,8.0,92,0.00,,,0.00,Wunderground v.1.15,2013-01-31 04:55:00,
2013-01-30 23:05:00,18.2,16.3,29.85,WNW,298,4.0,6.0,92,0.00,,,0.00,Wunderground v.1.15,2013-01-31 05:05:00,
2013-01-30 23:10:00,18.1,16.2,29.85,SW,230,5.0,5.0,92,0.00,,,0.00,Wunderground v.1.15,2013-01-31 05:10:00,
2013-01-30 23:15:00,18.0,16.1,29.85,WNW,285,6.0,8.0,92,0.00,,,0.00,Wunderground v.1.15,2013-01-31 05:15:00,
2013-01-30 23:20:00,17.8,15.9,29.85,WNW,297,7.0,7.0,92,0.00,,,0.00,Wunderground v.1.15,2013-01-31 05:20:00,
2013-01-30 23:25:00,17.6,15.4,29.86,WNW,288,7.0,7.0,91,0.00,,,0.00,Wunderground v.1.15,2013-01-31 05:25:00,
2013-01-30 23:30:00,17.5,15.3,29.86,WNW,300,6.0,6.0,91,0.00,,,0.00,Wunderground v.1.15,2013-01-31 05:30:00,
2013-01-30 23:35:00,17.2,15.0,29.86,WSW,258,5.0,6.0,91,0.00,,,0.00,Wunderground v.1.15,2013-01-31 05:35:00,
2013-01-30 23:40:00,17.0,14.8,29.86,WNW,285,5.0,14.0,91,0.00,,,0.00,Wunderground v.1.15,2013-01-31 05:40:00,
2013-01-30 23:45:00,16.6,14.4,29.87,WNW,299,7.0,14.0,91,0.00,,,0.00,Wunderground v.1.15,2013-01-31 05:45:00,
2013-01-30 23:50:00,16.2,14.0,29.87,NW,304,7.0,10.0,91,0.00,,,0.00,Wunderground v.1.15,2013-01-31 05:50:00,
2013-01-30 23:55:00,15.9,13.7,29.87,WNW,301,7.0,10.0,91,0.00,,,0.00,Wunderground v.1.15,2013-01-31 05:55:00,